Grass Lake, Minnesota
Current Conditions -  °F | °C
As of 2:35 AM on Monday 24 Nov 2014 (Local Time) from KCBG Reporting Station
Overcast Overcast  
Wind Chill: 25°   Ceiling: 1200
Heat Index: 34°   Visibility: 10mi
Dew Point: 27°   Wind: 13mph
Humidity: 75%   Direction: 290°WNW
Pressure: 29.28"   Gusts: NA
Location:  45.71°N, 93.2632°W
Report Text: KCBG 240835Z AUTO 29011KT 10SM OVC012 01/M03 A2928 RMK AO2
Loading
Personal Weather Stations






























Interactive Weather Map New forecast layout! Learn more

10-Day Weather Forecast

Advertisements
Track Severe Weather on mobile